Monday, March 30, 2015
16:18 UTC
  |  Log In   |  Register Free
Airport Search:

Williamsburg-Jamestown Airport
(KJGG)

Williamsburg-Jamestown Airport Diagram
No Airport Diagram Available

FAA data valid effective March 05, 2015 - April 30, 2015 (unless otherwise noted).

 
 
 
 
 
 
 
 
 
 
 
 
 
 

Current Aviation Weather for Williamsburg-Jamestown Airport (KJGG)

The most recent METAR observation for KJGG was updated at: 1410
METAR Summary (Translated METAR)
KJGG
251355Z AUTO 11004KT 10SM SCT040 09/02 A3038 RMK AO1
KFAF
251358Z AUTO 09006KT 10SM BKN040 BKN075 08/01 A3035 RMK AO2 SLP281 T00840012 $
(8.2 nm SE from KJGG)
KPHF
251354Z 07008KT 10SM SCT043 BKN075 09/02 A3038 RMK AO2 SLP286 T00940017
(12.5 nm SE from KJGG)
TAF Summary (Translated TAF)
KFAF
(8.2 nm SE from KJGG)
2510/2616 07009KT 9999 BKN040 620807 QNH3017INS BECMG 2521/2522 12008KT 9999 BKN020 WS020/18041KT QNH3015INS BECMG 2602/2603 18008KT 9999 SCT015 OVC050 WS020/20041KT QNH3007INS BECMG 2608/2609 18008KT 9999 OVC010 WS020/20043KT QNH2997INS BECMG 2613/2614 19008KT 4800 -RA BR OVC007 WS020/22041KT QNH2995INS TX14/2520Z TN05/2510Z
KPHF
(12.5 nm SE from KJGG)
251120Z 2512/2612 07007KT P6SM OVC080 FM251300 08003KT P6SM OVC050 FM251500 12006KT P6SM OVC050 FM251800 15006KT P6SM OVC015 FM260300 20006KT P6SM OVC050 FM260900 20010KT P6SM OVC025
  Airport Weather Conditions for KJGG

 Current Weather at JGG
46° F
Mostly Cloudy
Southwest winds at 11.5 mph
JGG NOAA Radar

Pressure: 30.01 in
Humidity: 76%
Wind: from the Southwest at 11.5 gusting to 18.4 MPH (10 gusting to 16 KT)
Dew Point: 39.2°F
Visibility: 10.00 mi


Airport Weather Forecast for KJGG

Translated METAR and TAF for KJGG
Translated METAR for KJGG (1617 UTC 30 March 2015)
found at http://aviationweather.gov/adds/metars/
 
METAR text: KJGG 301555Z AUTO 24007G15KT 210V270 10SM BKN090 09/04 A3000 RMK AO1
Conditions at: KJGG (WILLIAMSBURG , VA, US) observed 1555 UTC 30 March 2015
Temperature: 9.0°C (48°F)
Dewpoint: 4.0°C (39°F) [RH = 71%]
Pressure (altimeter): 30.00 inches Hg (1016.0 mb)
Winds: from the WSW (240 degrees) at 8 MPH (7 knots; 3.6 m/s)
gusting to 17 MPH (15 knots; 7.8 m/s)
Visibility: 10 or more miles (16+ km)
Ceiling: 9000 feet AGL
Clouds: broken clouds at 9000 feet AGL
Weather: automated observation with no human augmentation;
there may or may not be significant weather present at this time
Translated TAF for KJGG

There is no translated TAF available for this airport

Find All Airport Services Find A Hotel Find A Rental Car Find A Golf Course Find A Restaurant $100 Hamburger



FBO's on the Field
FBO Company Facility Photos Services Transportation Aviation Fuel Prices: Prices include tax
Catering Weather Repair Courtesy Rental Type 100LL JetA JetA+ MOGAS 8087
 
Williamsburg-Jamestown

This FBO has not yet been rated
FS:Shell
Last Updated: Feb-18
Login to update fuel prices
SS:
Contact Williamsburg-JamestownMore FBO Information
 
Add another FBO Facility Photos Catering Weather Repair Courtesy Rental Type 100LL JetA JetA+ MOGAS 8087
Services Transportation Aviation Fuel Prices: Prices include tax


model-print
model-print
model-print
model-print